sensor_id;sensor_type;location;lat;lon;timestamp;pressure;altitude;pressure_sealevel;temperature;humidity
70046;BME280;57385;41.832;23.494;2022-09-30T00:00:04;90804.31;;;14.67;76.09
70046;BME280;57385;41.832;23.494;2022-09-30T00:00:28;90799.63;;;14.59;76.63
70046;BME280;57385;41.832;23.494;2022-09-30T00:00:47;90797.31;;;14.58;76.50
70046;BME280;57385;41.832;23.494;2022-09-30T00:01:07;90810.75;;;14.65;76.71
70046;BME280;57385;41.832;23.494;2022-09-30T00:01:27;90804.78;;;14.59;77.41
70046;BME280;57385;41.832;23.494;2022-09-30T00:01:48;90804.78;;;14.59;76.67
70046;BME280;57385;41.832;23.494;2022-09-30T00:02:08;90806.84;;;14.62;76.57
70046;BME280;57385;41.832;23.494;2022-09-30T00:02:27;90807.91;;;14.61;76.98
70046;BME280;57385;41.832;23.494;2022-09-30T00:02:47;90815.13;;;14.64;77.07
70046;BME280;57385;41.832;23.494;2022-09-30T00:03:06;90808.66;;;14.57;76.95
70046;BME280;57385;41.832;23.494;2022-09-30T00:03:26;90802.44;;;14.52;76.86
70046;BME280;57385;41.832;23.494;2022-09-30T00:03:46;90805.03;;;14.58;77.21
70046;BME280;57385;41.832;23.494;2022-09-30T00:04:08;90808.66;;;14.57;77.26
70046;BME280;57385;41.832;23.494;2022-09-30T00:04:28;90807.84;;;14.51;77.48
70046;BME280;57385;41.832;23.494;2022-09-30T00:04:48;90802.94;;;14.49;77.59
70046;BME280;57385;41.832;23.494;2022-09-30T00:05:07;90803.72;;;14.50;77.09
70046;BME280;57385;41.832;23.494;2022-09-30T00:05:27;90811.50;;;14.55;76.99
70046;BME280;57385;41.832;23.494;2022-09-30T00:05:46;90804.22;;;14.52;77.20
70046;BME280;57385;41.832;23.494;2022-09-30T00:06:06;90801.38;;;14.48;76.91
70046;BME280;57385;41.832;23.494;2022-09-30T00:06:27;90809.38;;;14.47;77.25
70046;BME280;57385;41.832;23.494;2022-09-30T00:06:47;90810.41;;;14.51;77.02
70046;BME280;57385;41.832;23.494;2022-09-30T00:07:07;90799.56;;;14.44;76.88
70046;BME280;57385;41.832;23.494;2022-09-30T00:07:26;90803.19;;;14.48;77.60
70046;BME280;57385;41.832;23.494;2022-09-30T00:07:46;90804.22;;;14.47;76.68
70046;BME280;57385;41.832;23.494;2022-09-30T00:08:05;90804.47;;;14.45;77.00
70046;BME280;57385;41.832;23.494;2022-09-30T00:08:25;90820.78;;;14.56;77.01
70046;BME280;57385;41.832;23.494;2022-09-30T00:08:44;90811.44;;;14.50;77.30
70046;BME280;57385;41.832;23.494;2022-09-30T00:09:04;90825.94;;;14.56;77.00
70046;BME280;57385;41.832;23.494;2022-09-30T00:09:23;90818.94;;;14.51;77.54
70046;BME280;57385;41.832;23.494;2022-09-30T00:09:43;90816.59;;;14.50;77.12
70046;BME280;57385;41.832;23.494;2022-09-30T00:10:03;90807.06;;;14.45;77.16
70046;BME280;57385;41.832;23.494;2022-09-30T00:10:22;90808.59;;;14.46;76.67
70046;BME280;57385;41.832;23.494;2022-09-30T00:10:42;90804.47;;;14.45;76.78
70046;BME280;57385;41.832;23.494;2022-09-30T00:11:15;90814.56;;;14.52;77.38
70046;BME280;57385;41.832;23.494;2022-09-30T00:11:35;90815.59;;;14.51;77.39
70046;BME280;57385;41.832;23.494;2022-09-30T00:11:55;90807.81;;;14.46;77.12
70046;BME280;57385;41.832;23.494;2022-09-30T00:12:15;90811.97;;;14.52;76.97
70046;BME280;57385;41.832;23.494;2022-09-30T00:12:35;90805.78;;;14.48;76.70
70046;BME280;57385;41.832;23.494;2022-09-30T00:12:54;90799.56;;;14.44;76.60
70046;BME280;57385;41.832;23.494;2022-09-30T00:13:13;90816.13;;;14.53;77.26
70046;BME280;57385;41.832;23.494;2022-09-30T00:13:37;90822.53;;;14.50;77.48
70046;BME280;57385;41.832;23.494;2022-09-30T00:13:57;90811.19;;;14.46;77.54
70046;BME280;57385;41.832;23.494;2022-09-30T00:14:19;90802.63;;;14.41;77.16
70046;BME280;57385;41.832;23.494;2022-09-30T00:14:39;90808.09;;;14.44;77.07
70046;BME280;57385;41.832;23.494;2022-09-30T00:14:58;90801.84;;;14.40;77.43
70046;BME280;57385;41.832;23.494;2022-09-30T00:15:18;90816.88;;;14.48;77.73
70046;BME280;57385;41.832;23.494;2022-09-30T00:15:37;90798.50;;;14.40;77.13
70046;BME280;57385;41.832;23.494;2022-09-30T00:15:57;90813.25;;;14.49;77.25
70046;BME280;57385;41.832;23.494;2022-09-30T00:16:19;90800.03;;;14.41;77.23
70046;BME280;57385;41.832;23.494;2022-09-30T00:16:38;90811.97;;;14.47;77.21
70046;BME280;57385;41.832;23.494;2022-09-30T00:16:58;90804.72;;;14.44;77.06
70046;BME280;57385;41.832;23.494;2022-09-30T00:17:18;90807.06;;;14.45;77.26
70046;BME280;57385;41.832;23.494;2022-09-30T00:17:37;90793.34;;;14.40;76.87
70046;BME280;57385;41.832;23.494;2022-09-30T00:17:57;90796.13;;;14.38;76.84
70046;BME280;57385;41.832;23.494;2022-09-30T00:18:16;90796.66;;;14.35;77.16
70046;BME280;57385;41.832;23.494;2022-09-30T00:18:37;90817.63;;;14.49;77.28
70046;BME280;57385;41.832;23.494;2022-09-30T00:18:57;90810.94;;;14.48;77.41
70046;BME280;57385;41.832;23.494;2022-09-30T00:19:17;90796.91;;;14.34;77.20
70046;BME280;57385;41.832;23.494;2022-09-30T00:19:36;90821.25;;;14.48;76.82
70046;BME280;57385;41.832;23.494;2022-09-30T00:19:56;90796.91;;;14.39;77.23
70046;BME280;57385;41.832;23.494;2022-09-30T00:20:15;90815.03;;;14.44;77.07
70046;BME280;57385;41.832;23.494;2022-09-30T00:20:35;90806.72;;;14.37;77.33
70046;BME280;57385;41.832;23.494;2022-09-30T00:20:54;90814.44;;;14.37;77.47
70046;BME280;57385;41.832;23.494;2022-09-30T00:21:14;90807.75;;;14.36;77.20
70046;BME280;57385;41.832;23.494;2022-09-30T00:21:33;90822.53;;;14.45;77.48
70046;BME280;57385;41.832;23.494;2022-09-30T00:21:53;90814.50;;;14.42;76.89
70046;BME280;57385;41.832;23.494;2022-09-30T00:22:12;90806.19;;;14.35;77.11
70046;BME280;57385;41.832;23.494;2022-09-30T00:22:32;90814.19;;;14.38;77.53
70046;BME280;57385;41.832;23.494;2022-09-30T00:22:51;90817.31;;;14.40;77.38
70046;BME280;57385;41.832;23.494;2022-09-30T00:23:11;90805.69;;;14.38;77.32
70046;BME280;57385;41.832;23.494;2022-09-30T00:23:31;90838.78;;;14.46;77.59
70046;BME280;57385;41.832;23.494;2022-09-30T00:23:50;90825.38;;;14.44;77.54
70046;BME280;57385;41.832;23.494;2022-09-30T00:24:10;90834.66;;;14.45;77.81
70046;BME280;57385;41.832;23.494;2022-09-30T00:24:30;90816.25;;;14.36;77.95
70046;BME280;57385;41.832;23.494;2022-09-30T00:24:49;90820.13;;;14.39;77.83
70046;BME280;57385;41.832;23.494;2022-09-30T00:25:09;90827.94;;;14.44;77.39
70046;BME280;57385;41.832;23.494;2022-09-30T00:25:29;90824.75;;;14.37;77.68
70046;BME280;57385;41.832;23.494;2022-09-30T00:25:48;90815.47;;;14.31;77.67
70046;BME280;57385;41.832;23.494;2022-09-30T00:26:13;90831.78;;;14.41;77.39
70046;BME280;57385;41.832;23.494;2022-09-30T00:26:33;90831.00;;;14.41;77.80
70046;BME280;57385;41.832;23.494;2022-09-30T00:26:53;90820.38;;;14.32;77.43
70046;BME280;57385;41.832;23.494;2022-09-30T00:27:13;90828.91;;;14.38;77.56
70046;BME280;57385;41.832;23.494;2022-09-30T00:27:32;90828.13;;;14.37;77.01
70046;BME280;57385;41.832;23.494;2022-09-30T00:27:52;90838.50;;;14.42;76.87
70046;BME280;57385;41.832;23.494;2022-09-30T00:28:11;90829.41;;;14.35;77.41
70046;BME280;57385;41.832;23.494;2022-09-30T00:28:31;90820.63;;;14.31;77.60
70046;BME280;57385;41.832;23.494;2022-09-30T00:28:52;90839.78;;;14.40;77.40
70046;BME280;57385;41.832;23.494;2022-09-30T00:29:12;90829.66;;;14.33;77.14
70046;BME280;57385;41.832;23.494;2022-09-30T00:29:31;90830.44;;;14.34;77.11
70046;BME280;57385;41.832;23.494;2022-09-30T00:29:51;90823.97;;;14.31;76.92
70046;BME280;57385;41.832;23.494;2022-09-30T00:30:10;90827.84;;;14.34;76.91
70046;BME280;57385;41.832;23.494;2022-09-30T00:30:30;90822.69;;;14.29;76.97
70046;BME280;57385;41.832;23.494;2022-09-30T00:30:49;90832.75;;;14.35;77.47
70046;BME280;57385;41.832;23.494;2022-09-30T00:31:14;90814.88;;;14.23;76.92
70046;BME280;57385;41.832;23.494;2022-09-30T00:31:35;90827.59;;;14.30;77.48
70046;BME280;57385;41.832;23.494;2022-09-30T00:31:54;90827.59;;;14.30;77.32
70046;BME280;57385;41.832;23.494;2022-09-30T00:32:14;90831.47;;;14.33;77.46
70046;BME280;57385;41.832;23.494;2022-09-30T00:32:33;90828.34;;;14.31;77.36
70046;BME280;57385;41.832;23.494;2022-09-30T00:32:53;90825.78;;;14.31;77.25
70046;BME280;57385;41.832;23.494;2022-09-30T00:33:12;90825.50;;;14.27;77.52
70046;BME280;57385;41.832;23.494;2022-09-30T00:33:33;90840.25;;;14.37;77.29
70046;BME280;57385;41.832;23.494;2022-09-30T00:33:53;90834.03;;;14.33;77.24
70046;BME280;57385;41.832;23.494;2022-09-30T00:34:12;90827.31;;;14.27;77.44
70046;BME280;57385;41.832;23.494;2022-09-30T00:34:31;90835.59;;;14.34;77.92
70046;BME280;57385;41.832;23.494;2022-09-30T00:34:51;90820.81;;;14.24;78.14
70046;BME280;57385;41.832;23.494;2022-09-30T00:35:10;90824.44;;;14.23;77.97
70046;BME280;57385;41.832;23.494;2022-09-30T00:35:30;90835.31;;;14.30;77.68
70046;BME280;57385;41.832;23.494;2022-09-30T00:35:49;90836.63;;;14.33;78.18
70046;BME280;57385;41.832;23.494;2022-09-30T00:36:09;90836.63;;;14.33;77.75
70046;BME280;57385;41.832;23.494;2022-09-30T00:36:29;90829.13;;;14.26;78.02
70046;BME280;57385;41.832;23.494;2022-09-30T00:36:51;90829.88;;;14.27;77.88
70046;BME280;57385;41.832;23.494;2022-09-30T00:37:10;90827.00;;;14.23;77.68
70046;BME280;57385;41.832;23.494;2022-09-30T00:37:30;90823.66;;;14.22;77.96
70046;BME280;57385;41.832;23.494;2022-09-30T00:37:49;90828.03;;;14.22;77.81
70046;BME280;57385;41.832;23.494;2022-09-30T00:38:09;90825.72;;;14.20;77.90
70046;BME280;57385;41.832;23.494;2022-09-30T00:38:29;90836.31;;;14.24;77.88
70046;BME280;57385;41.832;23.494;2022-09-30T00:38:49;90833.97;;;14.22;77.80
70046;BME280;57385;41.832;23.494;2022-09-30T00:39:13;90840.44;;;14.25;77.58
70046;BME280;57385;41.832;23.494;2022-09-30T00:39:32;90829.81;;;14.16;77.52
70046;BME280;57385;41.832;23.494;2022-09-30T00:39:52;90839.66;;;14.24;77.73
70046;BME280;57385;41.832;23.494;2022-09-30T00:40:11;90830.59;;;14.17;77.34
70046;BME280;57385;41.832;23.494;2022-09-30T00:40:31;90846.16;;;14.27;77.62
70046;BME280;57385;41.832;23.494;2022-09-30T00:40:51;90841.97;;;14.21;77.78
70046;BME280;57385;41.832;23.494;2022-09-30T00:41:10;90838.09;;;14.18;77.49
70046;BME280;57385;41.832;23.494;2022-09-30T00:41:30;90851.06;;;14.29;77.49
70046;BME280;57385;41.832;23.494;2022-09-30T00:41:53;90852.59;;;14.30;77.26
70046;BME280;57385;41.832;23.494;2022-09-30T00:42:14;90845.59;;;14.25;77.27
70046;BME280;57385;41.832;23.494;2022-09-30T00:42:33;90851.25;;;14.22;77.35
70046;BME280;57385;41.832;23.494;2022-09-30T00:42:53;90842.75;;;14.21;77.90
70046;BME280;57385;41.832;23.494;2022-09-30T00:43:17;90850.44;;;14.16;77.96
70046;BME280;57385;41.832;23.494;2022-09-30T00:43:45;90849.19;;;14.24;77.72
70046;BME280;57385;41.832;23.494;2022-09-30T00:45:20;90845.84;;;14.23;77.32
70046;BME280;57385;41.832;23.494;2022-09-30T00:45:47;90846.41;;;14.26;77.75
70046;BME280;57385;41.832;23.494;2022-09-30T00:46:44;90849.19;;;14.24;77.61
70046;BME280;57385;41.832;23.494;2022-09-30T00:47:03;90832.94;;;14.18;77.47
70046;BME280;57385;41.832;23.494;2022-09-30T00:48:07;90841.19;;;14.20;77.55
70046;BME280;57385;41.832;23.494;2022-09-30T00:48:35;90841.19;;;14.20;77.38
70046;BME280;57385;41.832;23.494;2022-09-30T00:48:57;90846.41;;;14.26;77.31
70046;BME280;57385;41.832;23.494;2022-09-30T00:49:20;90855.44;;;14.28;78.10
70046;BME280;57385;41.832;23.494;2022-09-30T00:49:40;90852.56;;;14.24;77.55
70046;BME280;57385;41.832;23.494;2022-09-30T00:50:58;90844.00;;;14.14;77.36
70046;BME280;57385;41.832;23.494;2022-09-30T00:51:27;90853.28;;;14.15;77.57
70046;BME280;57385;41.832;23.494;2022-09-30T00:51:53;90864.41;;;14.20;77.31
70046;BME280;57385;41.832;23.494;2022-09-30T00:52:14;90849.63;;;14.11;77.92
70046;BME280;57385;41.832;23.494;2022-09-30T00:52:33;90857.91;;;14.13;78.07
70046;BME280;57385;41.832;23.494;2022-09-30T00:53:01;90854.78;;;14.11;77.79
70046;BME280;57385;41.832;23.494;2022-09-30T00:53:27;90854.00;;;14.10;78.06
70046;BME280;57385;41.832;23.494;2022-09-30T00:53:51;90863.34;;;14.16;77.87
70046;BME280;57385;41.832;23.494;2022-09-30T00:54:20;90852.22;;;14.11;77.72
70046;BME280;57385;41.832;23.494;2022-09-30T00:54:40;90846.50;;;14.04;78.01
70046;BME280;57385;41.832;23.494;2022-09-30T00:55:02;90841.59;;;14.02;78.28
70046;BME280;57385;41.832;23.494;2022-09-30T00:56:38;90858.94;;;14.12;77.54
70046;BME280;57385;41.832;23.494;2022-09-30T00:56:54;90852.97;;;14.11;77.73
70046;BME280;57385;41.832;23.494;2022-09-30T00:57:16;90864.09;;;14.12;77.97
70046;BME280;57385;41.832;23.494;2022-09-30T00:57:35;90851.97;;;14.12;77.41
70046;BME280;57385;41.832;23.494;2022-09-30T00:57:56;90860.25;;;14.14;77.39
70046;BME280;57385;41.832;23.494;2022-09-30T00:58:24;90851.16;;;14.07;77.51
70046;BME280;57385;41.832;23.494;2022-09-30T00:59:00;90861.78;;;14.15;77.66
70046;BME280;57385;41.832;23.494;2022-09-30T00:59:25;90854.50;;;14.07;77.54
70046;BME280;57385;41.832;23.494;2022-09-30T00:59:47;90852.47;;;14.09;77.92
70046;BME280;57385;41.832;23.494;2022-09-30T01:00:09;90849.59;;;14.06;77.68
70046;BME280;57385;41.832;23.494;2022-09-30T01:00:28;90862.78;;;14.09;78.08
70046;BME280;57385;41.832;23.494;2022-09-30T01:00:48;90856.03;;;14.03;77.98
70046;BME280;57385;41.832;23.494;2022-09-30T01:01:08;90863.03;;;14.08;77.71
70046;BME280;57385;41.832;23.494;2022-09-30T01:01:29;90876.19;;;14.11;77.90
70046;BME280;57385;41.832;23.494;2022-09-30T01:01:49;90860.16;;;14.04;77.67
70046;BME280;57385;41.832;23.494;2022-09-30T01:02:10;90855.00;;;14.04;77.84
70046;BME280;57385;41.832;23.494;2022-09-30T01:02:30;90848.28;;;13.98;77.73
70046;BME280;57385;41.832;23.494;2022-09-30T01:02:49;90869.72;;;14.09;77.64
70046;BME280;57385;41.832;23.494;2022-09-30T01:03:09;90868.97;;;14.08;77.71
70046;BME280;57385;41.832;23.494;2022-09-30T01:03:34;90868.44;;;14.06;77.95
70046;BME280;57385;41.832;23.494;2022-09-30T01:04:15;90870.47;;;14.04;77.61
70046;BME280;57385;41.832;23.494;2022-09-30T01:04:36;90863.78;;;14.03;77.48
70046;BME280;57385;41.832;23.494;2022-09-30T01:04:56;90851.84;;;13.97;77.87
70046;BME280;57385;41.832;23.494;2022-09-30T01:05:16;90855.47;;;13.96;78.07
70046;BME280;57385;41.832;23.494;2022-09-30T01:05:35;90866.06;;;14.00;77.88
70046;BME280;57385;41.832;23.494;2022-09-30T01:05:55;90867.41;;;14.07;77.69
70046;BME280;57385;41.832;23.494;2022-09-30T01:06:15;90865.84;;;14.06;78.25
70046;BME280;57385;41.832;23.494;2022-09-30T01:06:35;90856.78;;;13.99;78.20
70046;BME280;57385;41.832;23.494;2022-09-30T01:06:58;90861.19;;;14.03;78.23
70046;BME280;57385;41.832;23.494;2022-09-30T01:07:18;90853.91;;;13.95;78.08
70046;BME280;57385;41.832;23.494;2022-09-30T01:07:38;90867.91;;;14.04;78.06
70046;BME280;57385;41.832;23.494;2022-09-30T01:07:59;90844.09;;;13.92;77.90
70046;BME280;57385;41.832;23.494;2022-09-30T01:08:20;90852.63;;;13.98;78.35
70046;BME280;57385;41.832;23.494;2022-09-30T01:08:40;90863.00;;;14.03;78.40
70046;BME280;57385;41.832;23.494;2022-09-30T01:09:00;90851.06;;;13.97;77.93
70046;BME280;57385;41.832;23.494;2022-09-30T01:09:20;90860.16;;;14.04;78.28
70046;BME280;57385;41.832;23.494;2022-09-30T01:09:40;90851.84;;;13.97;78.00
70046;BME280;57385;41.832;23.494;2022-09-30T01:10:01;90845.16;;;13.96;78.31
70046;BME280;57385;41.832;23.494;2022-09-30T01:10:21;90845.16;;;13.96;77.88
70046;BME280;57385;41.832;23.494;2022-09-30T01:10:40;90848.03;;;14.00;78.04
70046;BME280;57385;41.832;23.494;2022-09-30T01:11:00;90858.38;;;14.05;78.24
70046;BME280;57385;41.832;23.494;2022-09-30T01:11:20;90846.22;;;14.00;77.95
70046;BME280;57385;41.832;23.494;2022-09-30T01:11:40;90856.53;;;14.00;78.14
70046;BME280;57385;41.832;23.494;2022-09-30T01:12:04;90853.13;;;13.94;78.32
70046;BME280;57385;41.832;23.494;2022-09-30T01:12:25;90844.63;;;13.94;78.30
70046;BME280;57385;41.832;23.494;2022-09-30T01:12:44;90850.81;;;13.93;77.88
70046;BME280;57385;41.832;23.494;2022-09-30T01:13:04;90835.84;;;13.90;78.02
70046;BME280;57385;41.832;23.494;2022-09-30T01:13:24;90847.25;;;13.99;77.92
70046;BME280;57385;41.832;23.494;2022-09-30T01:13:51;90834.53;;;13.87;77.88
70046;BME280;57385;41.832;23.494;2022-09-30T01:14:16;90842.03;;;13.94;77.89
70046;BME280;57385;41.832;23.494;2022-09-30T01:14:38;90838.66;;;13.88;78.00
70046;BME280;57385;41.832;23.494;2022-09-30T01:14:59;90843.84;;;13.93;78.32
70046;BME280;57385;41.832;23.494;2022-09-30T01:15:25;90844.34;;;13.90;78.46
70046;BME280;57385;41.832;23.494;2022-09-30T01:18:03;90850.53;;;13.89;78.44
70046;BME280;57385;41.832;23.494;2022-09-30T01:18:38;90842.25;;;13.87;78.34
70046;BME280;57385;41.832;23.494;2022-09-30T01:20:53;90851.03;;;13.86;78.34
70046;BME280;57385;41.832;23.494;2022-09-30T01:22:20;90852.25;;;13.84;78.54
70046;BME280;57385;41.832;23.494;2022-09-30T01:25:08;90853.06;;;13.84;78.42
70046;BME280;57385;41.832;23.494;2022-09-30T01:30:09;90867.22;;;13.82;78.26
70046;BME280;57385;41.832;23.494;2022-09-30T01:32:29;90868.22;;;13.81;78.06
70046;BME280;57385;41.832;23.494;2022-09-30T01:35:14;90862.53;;;13.79;78.30
70046;BME280;57385;41.832;23.494;2022-09-30T01:35:55;90862.25;;;13.75;78.25
70046;BME280;57385;41.832;23.494;2022-09-30T01:36:48;90865.66;;;13.81;78.47
70046;BME280;57385;41.832;23.494;2022-09-30T01:37:37;90873.38;;;13.81;78.31
70046;BME280;57385;41.832;23.494;2022-09-30T01:38:14;90871.06;;;13.79;77.86
70046;BME280;57385;41.832;23.494;2022-09-30T01:39:21;90872.34;;;13.82;77.71
70046;BME280;57385;41.832;23.494;2022-09-30T01:40:22;90872.34;;;13.82;77.45
70046;BME280;57385;41.832;23.494;2022-09-30T01:40:48;90870.81;;;13.81;78.29
70046;BME280;57385;41.832;23.494;2022-09-30T01:43:03;90870.28;;;13.79;78.40
70046;BME280;57385;41.832;23.494;2022-09-30T01:43:46;90866.13;;;13.73;78.16
70046;BME280;57385;41.832;23.494;2022-09-30T01:44:15;90870.78;;;13.76;78.60
70046;BME280;57385;41.832;23.494;2022-09-30T01:45:56;90858.06;;;13.69;78.33
70046;BME280;57385;41.832;23.494;2022-09-30T01:46:30;90859.34;;;13.67;78.23
70046;BME280;57385;41.832;23.494;2022-09-30T01:47:07;90869.94;;;13.70;78.56
70046;BME280;57385;41.832;23.494;2022-09-30T01:47:35;90861.16;;;13.66;78.15
70046;BME280;57385;41.832;23.494;2022-09-30T01:50:06;90872.28;;;13.72;78.36
70046;BME280;57385;41.832;23.494;2022-09-30T01:50:49;90872.03;;;13.73;78.39
70046;BME280;57385;41.832;23.494;2022-09-30T01:51:17;90861.69;;;13.68;78.16
70046;BME280;57385;41.832;23.494;2022-09-30T01:52:23;90867.91;;;13.72;78.21
70046;BME280;57385;41.832;23.494;2022-09-30T01:53:24;90854.19;;;13.67;78.05
70046;BME280;57385;41.832;23.494;2022-09-30T01:54:01;90860.97;;;13.73;78.06
70046;BME280;57385;41.832;23.494;2022-09-30T01:54:52;90852.63;;;13.66;78.10
70046;BME280;57385;41.832;23.494;2022-09-30T01:55:18;90868.16;;;13.71;78.29
70046;BME280;57385;41.832;23.494;2022-09-30T01:56:21;90858.06;;;13.69;78.39
70046;BME280;57385;41.832;23.494;2022-09-30T01:56:46;90861.16;;;13.66;77.69
70046;BME280;57385;41.832;23.494;2022-09-30T01:57:13;90852.59;;;13.60;78.42
70046;BME280;57385;41.832;23.494;2022-09-30T01:58:00;90860.66;;;13.69;78.26
70046;BME280;57385;41.832;23.494;2022-09-30T01:58:31;90863.47;;;13.68;78.05
70046;BME280;57385;41.832;23.494;2022-09-30T01:59:14;90859.88;;;13.69;78.20
70046;BME280;57385;41.832;23.494;2022-09-30T01:59:42;90857.28;;;13.63;78.80
70046;BME280;57385;41.832;23.494;2022-09-30T02:00:08;90859.84;;;13.63;78.25
70046;BME280;57385;41.832;23.494;2022-09-30T02:00:31;90854.69;;;13.63;78.26
70046;BME280;57385;41.832;23.494;2022-09-30T02:00:57;90853.91;;;13.63;78.13
70046;BME280;57385;41.832;23.494;2022-09-30T02:01:29;90854.19;;;13.67;78.39
70046;BME280;57385;41.832;23.494;2022-09-30T02:02:09;90856.00;;;13.66;77.99
70046;BME280;57385;41.832;23.494;2022-09-30T02:02:34;90846.63;;;13.55;78.21
70046;BME280;57385;41.832;23.494;2022-09-30T02:03:02;90861.91;;;13.61;78.30
70046;BME280;57385;41.832;23.494;2022-09-30T02:03:31;90851.06;;;13.59;77.86
70046;BME280;57385;41.832;23.494;2022-09-30T02:03:57;90866.31;;;13.66;78.42
70046;BME280;57385;41.832;23.494;2022-09-30T02:04:30;90866.56;;;13.64;78.37
70046;BME280;57385;41.832;23.494;2022-09-30T02:04:54;90852.84;;;13.59;78.58
70046;BME280;57385;41.832;23.494;2022-09-30T02:05:27;90862.66;;;13.62;78.04
70046;BME280;57385;41.832;23.494;2022-09-30T02:05:53;90864.75;;;13.65;78.15
70046;BME280;57385;41.832;23.494;2022-09-30T02:06:24;90875.06;;;13.65;78.50
70046;BME280;57385;41.832;23.494;2022-09-30T02:06:48;90856.16;;;13.54;78.40
70046;BME280;57385;41.832;23.494;2022-09-30T02:07:17;90854.09;;;13.56;78.29
70046;BME280;57385;41.832;23.494;2022-09-30T02:07:44;90870.41;;;13.62;78.26
70046;BME280;57385;41.832;23.494;2022-09-30T02:08:19;90860.28;;;13.55;78.28
70046;BME280;57385;41.832;23.494;2022-09-30T02:09:21;90861.38;;;13.59;78.14
70046;BME280;57385;41.832;23.494;2022-09-30T02:09:48;90852.25;;;13.52;78.06
70046;BME280;57385;41.832;23.494;2022-09-30T02:10:23;90871.66;;;13.59;77.83
70046;BME280;57385;41.832;23.494;2022-09-30T02:10:48;90871.41;;;13.61;78.29
70046;BME280;57385;41.832;23.494;2022-09-30T02:11:15;90863.16;;;13.59;78.09
70046;BME280;57385;41.832;23.494;2022-09-30T02:11:36;90866.53;;;13.59;77.83
70046;BME280;57385;41.832;23.494;2022-09-30T02:11:59;90869.38;;;13.63;78.37
70046;BME280;57385;41.832;23.494;2022-09-30T02:12:23;90866.03;;;13.62;77.89
70046;BME280;57385;41.832;23.494;2022-09-30T02:14:30;90866.03;;;13.62;78.30
70046;BME280;57385;41.832;23.494;2022-09-30T02:15:05;90868.78;;;13.56;78.40
70046;BME280;57385;41.832;23.494;2022-09-30T02:15:34;90862.84;;;13.55;78.13
70046;BME280;57385;41.832;23.494;2022-09-30T02:15:58;90868.56;;;13.57;78.25
70046;BME280;57385;41.832;23.494;2022-09-30T02:16:27;90859.72;;;13.48;78.50
70046;BME280;57385;41.832;23.494;2022-09-30T02:16:56;90876.50;;;13.56;78.61
70046;BME280;57385;41.832;23.494;2022-09-30T02:17:24;90871.91;;;13.58;78.32
70046;BME280;57385;41.832;23.494;2022-09-30T02:17:52;90871.13;;;13.57;78.17
70046;BME280;57385;41.832;23.494;2022-09-30T02:18:21;90876.28;;;13.57;77.99
70046;BME280;57385;41.832;23.494;2022-09-30T02:18:47;90875.22;;;13.53;78.92
70046;BME280;57385;41.832;23.494;2022-09-30T02:19:18;90866.94;;;13.51;78.38
70046;BME280;57385;41.832;23.494;2022-09-30T02:19:43;90862.03;;;13.50;78.59
70046;BME280;57385;41.832;23.494;2022-09-30T02:20:07;90872.13;;;13.56;78.44
70046;BME280;57385;41.832;23.494;2022-09-30T02:20:38;90851.38;;;13.41;78.68
70046;BME280;57385;41.832;23.494;2022-09-30T02:21:02;90867.97;;;13.50;78.88
70046;BME280;57385;41.832;23.494;2022-09-30T02:21:31;90879.88;;;13.56;78.20
70046;BME280;57385;41.832;23.494;2022-09-30T02:21:59;90873.38;;;13.49;78.46
70046;BME280;57385;41.832;23.494;2022-09-30T02:22:50;90880.09;;;13.55;78.67
70046;BME280;57385;41.832;23.494;2022-09-30T02:23:16;90872.09;;;13.51;78.23
70046;BME280;57385;41.832;23.494;2022-09-30T02:23:40;90879.31;;;13.49;78.55
70046;BME280;57385;41.832;23.494;2022-09-30T02:24:04;90883.19;;;13.52;78.49
70046;BME280;57385;41.832;23.494;2022-09-30T02:24:27;90875.16;;;13.48;78.41
70046;BME280;57385;41.832;23.494;2022-09-30T02:24:53;90879.31;;;13.49;78.17
70046;BME280;57385;41.832;23.494;2022-09-30T02:25:18;90885.47;;;13.48;78.98
70046;BME280;57385;41.832;23.494;2022-09-30T02:25:47;90888.34;;;13.52;78.67
70046;BME280;57385;41.832;23.494;2022-09-30T02:26:18;90889.63;;;13.54;78.71
70046;BME280;57385;41.832;23.494;2022-09-30T02:26:41;90889.88;;;13.53;78.50
70046;BME280;57385;41.832;23.494;2022-09-30T02:27:02;90899.94;;;13.54;78.77
70046;BME280;57385;41.832;23.494;2022-09-30T02:27:38;90903.06;;;13.56;78.24
70046;BME280;57385;41.832;23.494;2022-09-30T02:28:02;90902.00;;;13.52;78.46
70046;BME280;57385;41.832;23.494;2022-09-30T02:28:26;90900.47;;;13.56;78.53
70046;BME280;57385;41.832;23.494;2022-09-30T02:28:53;90896.91;;;13.57;78.39
70046;BME280;57385;41.832;23.494;2022-09-30T02:29:21;90890.09;;;13.46;78.43
70046;BME280;57385;41.832;23.494;2022-09-30T02:29:46;90903.25;;;13.50;78.98
70046;BME280;57385;41.832;23.494;2022-09-30T02:30:08;90905.88;;;13.55;79.00
70046;BME280;57385;41.832;23.494;2022-09-30T02:30:32;90893.44;;;13.47;78.73
70046;BME280;57385;41.832;23.494;2022-09-30T02:30:56;90902.28;;;13.56;78.40
70046;BME280;57385;41.832;23.494;2022-09-30T02:31:19;90900.72;;;13.55;78.79
70046;BME280;57385;41.832;23.494;2022-09-30T02:31:42;90919.31;;;13.57;78.79
70046;BME280;57385;41.832;23.494;2022-09-30T02:32:08;90890.63;;;13.48;78.19
70046;BME280;57385;41.832;23.494;2022-09-30T02:32:36;90900.97;;;13.53;78.32
70046;BME280;57385;41.832;23.494;2022-09-30T02:33:02;90891.66;;;13.47;78.50
70046;BME280;57385;41.832;23.494;2022-09-30T02:33:32;90904.84;;;13.56;78.92
70046;BME280;57385;41.832;23.494;2022-09-30T02:34:07;90898.88;;;13.50;78.13
70046;BME280;57385;41.832;23.494;2022-09-30T02:34:34;90885.97;;;13.45;78.22
70046;BME280;57385;41.832;23.494;2022-09-30T02:35:02;90909.78;;;13.57;78.58
70046;BME280;57385;41.832;23.494;2022-09-30T02:35:35;90910.78;;;13.56;78.32